• Join FlightAware (Why Join?)
  • Login
  • US Flag 
Trick or treat! (Boo!!) 
02:25AM EDT


 

Airport Tracker/Info


-or-


 

Live Flight TrackerFlight Track Log ✈ GPD20 ✈ 01-Sep-2013 ✈ KJFK - KACK

Flight Track Log - Related Links

Times and Time Zones

All times are in EDT time to prevent confusion due to time zone crossing. See the GPD20 flight status page for this flight to view local times or setup timezone preferences in your user account.

Time Position Orientation Groundspeed Altitude Reporting Facility
EDT Latitude Longitude Course Direction KTS MPH feet Rate Location/Type
10:42AM 40.6167 -73.8000 201° Southwest 109 125 1,400  Level New York TRACON
10:43AM 40.5833 -73.8167 201° Southwest 119 137 2,100 720 Climbing New York TRACON
10:44AM 40.5833 -73.7667 90° East 136 157 2,900 660 Climbing New York TRACON
10:45AM 40.6000 -73.7333 57° Northeast 139 160 3,600 720 Climbing New York TRACON
10:46AM 40.6167 -73.6833 66° East 145 167 4,300 660 Climbing New York TRACON
10:47AM 40.6333 -73.6333 66° East 151 174 4,900 540 Climbing New York TRACON
10:48AM 40.6500 -73.5833 66° East 161 185 5,400 420 Climbing New York TRACON
10:49AM 40.6833 -73.5333 49° Northeast 167 192 5,800 360 Climbing New York TRACON
10:50AM 40.7000 -73.5000 57° Northeast 168 193 6,200 420 Climbing New York TRACON
10:51AM 40.7333 -73.4500 49° Northeast 169 194 6,700 360 Climbing New York TRACON
10:52AM 40.7667 -73.4167 37° Northeast 169 194 7,000 180 Climbing New York TRACON
10:53AM 40.8167 -73.3833 27° Northeast 180 207 7,100  Climbing New York TRACON
10:54AM 40.8500 -73.3500 37° Northeast 178 205 7,100 -60 Level New York TRACON
10:55AM 40.9000 -73.3167 27° Northeast 177 204 7,000  Descending New York TRACON
10:56AM 40.9333 -73.2833 37° Northeast 177 204 7,100  Climbing New York TRACON
10:57AM 40.9833 -73.2500 27° Northeast 179 206 7,000 -60 Descending New York TRACON
10:58AM 41.0333 -73.2333 14° North 176 203 7,000  Level New York TRACON
10:59AM 41.0667 -73.2000 37° Northeast 175 201 7,000  Level New York TRACON
11:00AM 41.1167 -73.1667 27° Northeast 177 204 7,000  Level New York TRACON
11:01AM 41.1500 -73.1333 37° Northeast 176 203 7,000  Level New York TRACON
11:02AM 41.1833 -73.0833 48° Northeast 177 204 7,100  Climbing New York TRACON
11:03AM 41.2000 -73.0167 72° East 177 204 7,000 -60 Descending New York TRACON
11:04AM 41.2167 -72.9667 66° East 177 204 7,000  Level New York TRACON
11:05AM 41.2333 -72.9000 72° East 179 206 7,000  Level New York TRACON
11:06AM 41.2667 -72.8500 48° Northeast 180 207 7,000  Level New York TRACON
11:07AM 41.2833 -72.7833 72° East 184 212 7,000  Level New York TRACON
11:08AM 41.3000 -72.7333 66° East 184 212 7,000  Level New York TRACON
11:09AM 41.3167 -72.6667 72° East 181 208 7,000  Level New York TRACON
11:10AM 41.3333 -72.6167 66° East 177 204 7,000  Level New York TRACON
11:11AM 41.3269 -72.5422 96° East 173 199 7,000  Level Boston Center
11:12AM 41.3292 -72.4872 87° East 180 207 7,000  Level Boston Center
11:13AM 41.3292 -72.4208 90° East 183 211 7,000  Level Boston Center
11:14AM 41.3292 -72.3544 90° East 182 209 7,000  Level Boston Center
11:15AM 41.3167 -72.2881 104° East 168 193 7,000  Level Boston Center
11:16AM 41.3103 -72.2328 99° East 175 201 7,000  Level Boston Center
11:17AM 41.2997 -72.1667 102° East 178 205 7,000  Level Boston Center
11:18AM 41.2933 -72.1031 98° East 175 201 7,000  Level Boston Center
11:19AM 41.2847 -72.0339 99° East 171 197 7,000  Level Boston Center
11:20AM 41.2739 -71.9622 101° East 179 206 7,000  Level Boston Center
11:21AM 41.2633 -71.8906 101° East 178 205 7,000  Level Boston Center
11:22AM 41.2567 -71.8272 98° East 175 201 7,000  Level Boston Center
11:23AM 41.2458 -71.7636 103° East 167 192 7,000  Level Boston Center
11:24AM 41.2372 -71.6975 100° East 177 204 7,000  Level Boston Center
11:25AM 41.2283 -71.6342 101° East 178 205 7,000  Level Boston Center
11:26AM 41.2175 -71.5625 101° East 178 205 7,000  Level Boston Center
11:27AM 41.2086 -71.4992 101° East 175 201 7,000  Level Boston Center
11:28AM 41.1997 -71.4331 100° East 180 207 7,000  Level Boston Center
11:30AM 41.1999 -71.3466 90° East  Level FlightAware Approximate
11:37AM 41.1560 -70.9565 121° Southeast  Level FlightAware Approximate
11:38AM 41.1336 -70.9072 121° Southeast  Level FlightAware Approximate
11:39AM 41.1112 -70.8579 121° Southeast  Level FlightAware Approximate
11:40AM 41.1047 -70.8052 77° East  Level FlightAware Approximate
11:41AM 41.1141 -70.7490 77° East  Level FlightAware Approximate
11:42AM 41.1235 -70.6928 78° East  Level FlightAware Approximate
11:43AM 41.1328 -70.6365 78° East  Level FlightAware Approximate
11:44AM 41.1499 -70.5837 66° East  Level FlightAware Approximate
11:45AM 41.1667 -70.5308 90° East  Level FlightAware Approximate
11:46AM 41.1681 -70.4733 79° East  Level FlightAware Approximate
11:47AM 41.1762 -70.4167 79° East  Level FlightAware Approximate
11:48AM 41.1844 -70.3601 77° East  Level FlightAware Approximate
11:49AM 41.1938 -70.3039 77° East  Level FlightAware Approximate
11:50AM 41.2052 -70.2484 69° East  Level FlightAware Approximate
11:51AM 41.2206 -70.1945 69° East  Level FlightAware Approximate
11:52AM 41.2350 -70.1402 77° East  Level FlightAware Approximate
11:53AM 41.2444 -70.0839 77° East  Level FlightAware Approximate
11:54AM 41.2500 -70.0500 77° East  Level FlightAware Approximate
11:55AM 41.2531 -70.0603 77° East  Level Estimated
11:56AM 41.2531 -70.0603 77° East  Level Estimated
11:57AM 41.2531 -70.0603 77° East  Level Estimated
11:58AM 41.2531 -70.0603 77° East  Level Estimated
11:59AM 41.2531 -70.0603 77° East  Level Estimated
12:00PM 41.2531 -70.0603 77° East  Level Estimated
12:01PM 41.2531 -70.0603 77° East  Level Estimated
12:02PM 41.2531 -70.0603 77° East  Level Estimated
12:03PM 41.2531 -70.0603 77° East  Level Estimated